Buoy 46930

sailwx.info

Track history (hours):
 
Tides and Currents Weather Stations Pressure Air Temp Water Temp Dewpoint Dewpoint Depression Visibility Wind Speed Wind Dir Waves Ship Positions

Drifting buoy 46930

Last reported at 2017-Aug-10 07:00 UTC. Time now 2017-Dec-16 15:05 UTC.
Position N 17°34' E 158°08'.
Warning: this ship's position is months out of date.

Date/timePositionNaut miles runAvg speedWind from/ knotsBaromVisibWave heightAir tempDewpointWater temp
2017-Aug-10 07:00N 17°34' E 158°08'1 1.3
2017-Aug-10 06:00N 17°32' E 158°08'4 0.5
2017-Aug-09 23:00N 17°29' E 158°08'1 0.6
2017-Aug-09 21:00N 17°28' E 158°08'1 1.2
2017-Aug-09 20:00N 17°26' E 158°08'0 0.0
2017-Aug-09 19:00N 17°26' E 158°08'5 0.7
2017-Aug-09 11:00N 17°23' E 158°04'3 1.3
2017-Aug-09 09:00N 17°21' E 158°02'1 0.6
2017-Aug-09 08:00N 17°20' E 158°02'1 0.6
2017-Aug-09 07:00N 17°20' E 158°02'2 2.5
2017-Aug-09 06:00N 17°17' E 158°03'5 0.8
2017-Aug-08 23:00N 17°12' E 158°03'1 0.4
2017-Aug-08 20:00N 17°11' E 158°03'0 0.0
2017-Aug-08 19:00N 17°11' E 158°03'1 0.6
2017-Aug-08 18:00N 17°11' E 158°04'4 0.6
2017-Aug-08 11:00N 17°09' E 158°00'0 0.0
2017-Aug-08 10:00N 17°09' E 158°00'1 1.3
2017-Aug-08 09:00N 17°08' E 157°59'1 0.8
2017-Aug-08 08:00N 17°08' E 157°58'1 0.6
2017-Aug-08 07:00N 17°07' E 157°58'8 1.0
2017-Aug-07 23:00N 17°01' E 157°53'1 1.3
2017-Aug-07 22:00N 16°59' E 157°53'0 0.0
2017-Aug-07 21:00N 16°59' E 157°53'1 0.8
2017-Aug-07 20:00N 16°59' E 157°53'0 0.0
2017-Aug-07 19:00N 16°59' E 157°53'5 0.6
2017-Aug-07 11:00N 16°55' E 157°52'1 0.6
2017-Aug-07 10:00N 16°55' E 157°52'1 0.8
2017-Aug-07 09:00N 16°55' E 157°51'1 0.6
2017-Aug-07 08:00N 16°55' E 157°52'1 1.3
2017-Aug-07 07:00N 16°55' E 157°50'1 0.6
2017-Aug-07 06:00N 16°55' E 157°51'2 1.8
2017-Aug-07 05:00N 16°55' E 157°49'1 0.6
2017-Aug-07 04:00N 16°55' E 157°49'4 0.9
2017-Aug-07 00:00N 16°53' E 157°45'1 0.6
2017-Aug-06 22:00N 16°53' E 157°44'1 0.3
2017-Aug-06 20:00N 16°53' E 157°43'0 0.0
2017-Aug-06 19:00N 16°53' E 157°43'1 1.3
2017-Aug-06 18:00N 16°52' E 157°42'4 0.4
2017-Aug-06 09:00N 16°50' E 157°39'1 0.6
2017-Aug-06 08:00N 16°50' E 157°38'0 0.0
2017-Aug-06 07:00N 16°50' E 157°38'1 0.8
2017-Aug-06 06:00N 16°49' E 157°38'1 0.6
2017-Aug-06 04:00N 16°49' E 157°37'3 0.4
2017-Aug-05 21:00N 16°49' E 157°34'1 0.8
2017-Aug-05 20:00N 16°49' E 157°33'0 0.0
2017-Aug-05 19:00N 16°49' E 157°33'1 0.6
2017-Aug-05 18:00N 16°50' E 157°33'4 0.6
2017-Aug-05 11:00N 16°52' E 157°29'1 0.8
2017-Aug-05 10:00N 16°53' E 157°30'2 1.8
2017-Aug-05 09:00N 16°53' E 157°28'0 0.0
2017-Aug-05 08:00N 16°53' E 157°28'1 1.3
2017-Aug-05 07:00N 16°54' E 157°27'1 0.6
2017-Aug-05 06:00N 16°55' E 157°27'5 0.7
2017-Aug-04 23:00N 16°55' E 157°22'1 0.4
2017-Aug-04 21:00N 16°55' E 157°22'1 1.1
2017-Aug-04 20:00N 16°55' E 157°20'1 0.3
2017-Aug-04 18:00N 16°55' E 157°20'3 0.4
2017-Aug-04 11:00N 16°58' E 157°20'1 0.4
2017-Aug-04 08:00N 16°59' E 157°19'1 1.2
2017-Aug-04 07:00N 17°00' E 157°19'1 1.3
2017-Aug-04 06:00N 17°01' E 157°19'6 0.8
2017-Aug-03 23:00N 17°06' E 157°16'1 0.3
2017-Aug-03 21:00N 17°07' E 157°16'2 1.7
2017-Aug-03 20:00N 17°08' E 157°14'6 0.7
2017-Aug-03 11:00N 17°13' E 157°11'1 0.6
2017-Aug-03 10:00N 17°13' E 157°11'1 0.8
2017-Aug-03 09:00N 17°14' E 157°10'1 1.2
2017-Aug-03 08:00N 17°15' E 157°10'1 0.4
2017-Aug-03 06:00N 17°16' E 157°11'5 0.8
2017-Aug-02 23:00N 17°21' E 157°11'1 0.6
2017-Aug-02 22:00N 17°22' E 157°11'1 0.6
2017-Aug-02 21:00N 17°22' E 157°11'2 0.9
2017-Aug-02 19:00N 17°24' E 157°11'6 0.7
2017-Aug-02 11:00N 17°29' E 157°13'1 0.8
2017-Aug-02 10:00N 17°30' E 157°14'2 0.9
2017-Aug-02 08:00N 17°32' E 157°13'0 0.0
2017-Aug-02 07:00N 17°32' E 157°13'1 1.3
2017-Aug-02 06:00N 17°33' E 157°13'2 1.8
2017-Aug-02 05:00N 17°35' E 157°13'4 0.5
2017-Aug-01 21:00N 17°38' E 157°12'1 0.3
2017-Aug-01 19:00N 17°39' E 157°12'2 0.3
2017-Aug-01 11:00N 17°41' E 157°14'0 0.0
2017-Aug-01 10:00N 17°41' E 157°14'1 0.4
2017-Aug-01 08:00N 17°41' E 157°14'1 0.6
2017-Aug-01 07:00N 17°41' E 157°15'4 0.4
2017-Jul-31 22:00N 17°43' E 157°19'2 0.8
2017-Jul-31 20:00N 17°44' E 157°20'2 1.8
2017-Jul-31 19:00N 17°44' E 157°22'0 0.0
2017-Jul-31 18:00N 17°44' E 157°22'4 0.5
2017-Jul-31 09:00N 17°48' E 157°24'0 0.0
2017-Jul-31 08:00N 17°48' E 157°24'1 0.6
2017-Jul-31 07:00N 17°48' E 157°25'  
Track history (hours):
 
Tides and Currents Weather Stations Pressure Air Temp Water Temp Dewpoint Dewpoint Depression Visibility Wind Speed Wind Dir Waves Ship Positions

Drifting buoy 46930

Last reported at 2017-Aug-10 07:00 UTC. Time now 2017-Dec-16 15:05 UTC.
Position N 17°34' E 158°08'.
Warning: this ship's position is months out of date.

Date/timePositionNaut miles runAvg speedWind from/ knotsBaromVisibWave heightAir tempDewpointWater temp
2017-Aug-10 07:00N 17°34' E 158°08'1 1.3
2017-Aug-10 06:00N 17°32' E 158°08'4 0.5
2017-Aug-09 23:00N 17°29' E 158°08'1 0.6
2017-Aug-09 21:00N 17°28' E 158°08'1 1.2
2017-Aug-09 20:00N 17°26' E 158°08'0 0.0
2017-Aug-09 19:00N 17°26' E 158°08'5 0.7
2017-Aug-09 11:00N 17°23' E 158°04'3 1.3
2017-Aug-09 09:00N 17°21' E 158°02'1 0.6
2017-Aug-09 08:00N 17°20' E 158°02'1 0.6
2017-Aug-09 07:00N 17°20' E 158°02'2 2.5
2017-Aug-09 06:00N 17°17' E 158°03'5 0.8
2017-Aug-08 23:00N 17°12' E 158°03'1 0.4
2017-Aug-08 20:00N 17°11' E 158°03'0 0.0
2017-Aug-08 19:00N 17°11' E 158°03'1 0.6
2017-Aug-08 18:00N 17°11' E 158°04'4 0.6
2017-Aug-08 11:00N 17°09' E 158°00'0 0.0
2017-Aug-08 10:00N 17°09' E 158°00'1 1.3
2017-Aug-08 09:00N 17°08' E 157°59'1 0.8
2017-Aug-08 08:00N 17°08' E 157°58'1 0.6
2017-Aug-08 07:00N 17°07' E 157°58'8 1.0
2017-Aug-07 23:00N 17°01' E 157°53'1 1.3
2017-Aug-07 22:00N 16°59' E 157°53'0 0.0
2017-Aug-07 21:00N 16°59' E 157°53'1 0.8
2017-Aug-07 20:00N 16°59' E 157°53'0 0.0
2017-Aug-07 19:00N 16°59' E 157°53'5 0.6
2017-Aug-07 11:00N 16°55' E 157°52'1 0.6
2017-Aug-07 10:00N 16°55' E 157°52'1 0.8
2017-Aug-07 09:00N 16°55' E 157°51'1 0.6
2017-Aug-07 08:00N 16°55' E 157°52'1 1.3
2017-Aug-07 07:00N 16°55' E 157°50'1 0.6
2017-Aug-07 06:00N 16°55' E 157°51'2 1.8
2017-Aug-07 05:00N 16°55' E 157°49'1 0.6
2017-Aug-07 04:00N 16°55' E 157°49'4 0.9
2017-Aug-07 00:00N 16°53' E 157°45'1 0.6
2017-Aug-06 22:00N 16°53' E 157°44'1 0.3
2017-Aug-06 20:00N 16°53' E 157°43'0 0.0
2017-Aug-06 19:00N 16°53' E 157°43'1 1.3
2017-Aug-06 18:00N 16°52' E 157°42'4 0.4
2017-Aug-06 09:00N 16°50' E 157°39'1 0.6
2017-Aug-06 08:00N 16°50' E 157°38'0 0.0
2017-Aug-06 07:00N 16°50' E 157°38'1 0.8
2017-Aug-06 06:00N 16°49' E 157°38'1 0.6
2017-Aug-06 04:00N 16°49' E 157°37'3 0.4
2017-Aug-05 21:00N 16°49' E 157°34'1 0.8
2017-Aug-05 20:00N 16°49' E 157°33'0 0.0
2017-Aug-05 19:00N 16°49' E 157°33'1 0.6
2017-Aug-05 18:00N 16°50' E 157°33'4 0.6
2017-Aug-05 11:00N 16°52' E 157°29'1 0.8
2017-Aug-05 10:00N 16°53' E 157°30'2 1.8
2017-Aug-05 09:00N 16°53' E 157°28'0 0.0
2017-Aug-05 08:00N 16°53' E 157°28'1 1.3
2017-Aug-05 07:00N 16°54' E 157°27'1 0.6
2017-Aug-05 06:00N 16°55' E 157°27'5 0.7
2017-Aug-04 23:00N 16°55' E 157°22'1 0.4
2017-Aug-04 21:00N 16°55' E 157°22'1 1.1
2017-Aug-04 20:00N 16°55' E 157°20'1 0.3
2017-Aug-04 18:00N 16°55' E 157°20'3 0.4
2017-Aug-04 11:00N 16°58' E 157°20'1 0.4
2017-Aug-04 08:00N 16°59' E 157°19'1 1.2
2017-Aug-04 07:00N 17°00' E 157°19'1 1.3
2017-Aug-04 06:00N 17°01' E 157°19'6 0.8
2017-Aug-03 23:00N 17°06' E 157°16'1 0.3
2017-Aug-03 21:00N 17°07' E 157°16'2 1.7
2017-Aug-03 20:00N 17°08' E 157°14'6 0.7
2017-Aug-03 11:00N 17°13' E 157°11'1 0.6
2017-Aug-03 10:00N 17°13' E 157°11'1 0.8
2017-Aug-03 09:00N 17°14' E 157°10'1 1.2
2017-Aug-03 08:00N 17°15' E 157°10'1 0.4
2017-Aug-03 06:00N 17°16' E 157°11'5 0.8
2017-Aug-02 23:00N 17°21' E 157°11'1 0.6
2017-Aug-02 22:00N 17°22' E 157°11'1 0.6
2017-Aug-02 21:00N 17°22' E 157°11'2 0.9
2017-Aug-02 19:00N 17°24' E 157°11'6 0.7
2017-Aug-02 11:00N 17°29' E 157°13'1 0.8
2017-Aug-02 10:00N 17°30' E 157°14'2 0.9
2017-Aug-02 08:00N 17°32' E 157°13'0 0.0
2017-Aug-02 07:00N 17°32' E 157°13'1 1.3
2017-Aug-02 06:00N 17°33' E 157°13'2 1.8
2017-Aug-02 05:00N 17°35' E 157°13'4 0.5
2017-Aug-01 21:00N 17°38' E 157°12'1 0.3
2017-Aug-01 19:00N 17°39' E 157°12'2 0.3
2017-Aug-01 11:00N 17°41' E 157°14'0 0.0
2017-Aug-01 10:00N 17°41' E 157°14'1 0.4
2017-Aug-01 08:00N 17°41' E 157°14'1 0.6
2017-Aug-01 07:00N 17°41' E 157°15'4 0.4
2017-Jul-31 22:00N 17°43' E 157°19'2 0.8
2017-Jul-31 20:00N 17°44' E 157°20'2 1.8
2017-Jul-31 19:00N 17°44' E 157°22'0 0.0
2017-Jul-31 18:00N 17°44' E 157°22'4 0.5
2017-Jul-31 09:00N 17°48' E 157°24'0 0.0
2017-Jul-31 08:00N 17°48' E 157°24'1 0.6
2017-Jul-31 07:00N 17°48' E 157°25'  

Dump ship's entire track history